WetterOnline ( https://www.wetteronline.ch )

Wetter aktuell Görlitz

Aktuelles Wetter: Görlitz (240m)

6-stündlich | Neueste Meldungen
Ortszeit Temperatur Wetter
Di, 22.10. 2:00 9.9° C leicht bewölkt
Mo, 21.10. 20:00 15.0° C bewölkt
Mo, 21.10. 14:00 20.3° C leicht bewölkt
Mo, 21.10. 8:00 11.3° C wolkig
Mo, 21.10. 2:00 17.0° C wolkig
So, 20.10. 20:00 15.2° C wolkig
So, 20.10. 14:00 17.6° C fast wolkenlos
So, 20.10. 8:00 10.7° C wolkig
Ortszeit Temperatur Wetter
Di, 22.10. 2:30 9.3° C wolkig
Di, 22.10. 2:20 9.3° C wolkig
Di, 22.10. 2:10 9.5° C wolkig
Di, 22.10. 2:00 9.9° C leicht bewölkt
Di, 22.10. 1:40 10.3° C leicht bewölkt
Di, 22.10. 1:30 11.0° C wolkenlos
Di, 22.10. 1:00 11.4° C wolkenlos
Di, 22.10. 0:30 11.8° C wolkenlos
Di, 22.10. 0:00 12.3° C leicht bewölkt
Mo, 21.10. 23:30 12.7° C wolkig
Ortszeit Relative Feuchte Sichtweite
Di, 22.10. 2:00 96% 5.0 km
Mo, 21.10. 20:00 83% 26 km
Mo, 21.10. 14:00 61% 30 km
Mo, 21.10. 8:00 91% 18 km
Mo, 21.10. 2:00 72% 50 km
So, 20.10. 20:00 76% 40 km
So, 20.10. 14:00 68% 40 km
So, 20.10. 8:00 92% 12 km
Ortszeit Relative Feuchte Sichtweite
Di, 22.10. 2:30 98% 1.3 km
Di, 22.10. 2:20 98% -
Di, 22.10. 2:10 97% -
Di, 22.10. 2:00 96% 5.0 km
Di, 22.10. 1:40 96% -
Di, 22.10. 1:30 97% 5.0 km
Di, 22.10. 1:00 97% 6 km
Di, 22.10. 0:30 97% 8 km
Di, 22.10. 0:00 95% 12 km
Mo, 21.10. 23:30 95% 18 km
Ortszeit Niederschlagsmenge Niederschlagsart
Di, 22.10. 2:00 0.0 l/m2 in 6 Std. -
Mo, 21.10. 20:00 0.0 l/m2 in 12 Std. -
Mo, 21.10. 14:00 0.0 l/m2 in 6 Std. -
Mo, 21.10. 8:00 0.0 l/m2 in 12 Std. -
Mo, 21.10. 2:00 0.0 l/m2 in 6 Std. -
So, 20.10. 20:00 0.0 l/m2 in 12 Std. -
So, 20.10. 14:00 0.0 l/m2 in 6 Std. -
So, 20.10. 8:00 0.0 l/m2 in 12 Std. -
Ortszeit Niederschlagsmenge Niederschlagsart
Di, 22.10. 2:30 0.0 l/m2 in 1 Std. -
Di, 22.10. 2:20 keine Meldung -
Di, 22.10. 2:10 keine Meldung -
Di, 22.10. 2:00 0.0 l/m2 in 1 Std. -
Di, 22.10. 1:40 keine Meldung -
Di, 22.10. 1:30 0.0 l/m2 in 1 Std. -
Di, 22.10. 1:00 0.0 l/m2 in 1 Std. -
Di, 22.10. 0:30 0.0 l/m2 in 1 Std. -
Di, 22.10. 0:00 0.0 l/m2 in 1 Std. -
Mo, 21.10. 23:30 0.0 l/m2 in 1 Std. -
Ortszeit Stärke Spitze Richtung
km/h Bft. km/h Grad Sektor
Di, 22.10. 2:00 6 1 9 260° W
Mo, 21.10. 20:00 6 1 19 240° SW
Mo, 21.10. 14:00 9 2 28 250° W
Mo, 21.10. 8:00 9 2 30 120° SO
Mo, 21.10. 2:00 19 3 28 190° S
So, 20.10. 20:00 15 3 30 180° S
So, 20.10. 14:00 14 3 36 230° SW
So, 20.10. 8:00 7 2 32 130° SO
Ortszeit Stärke Spitze Richtung
km/h Bft. km/h Grad Sektor
Di, 22.10. 2:30 7 2 7 240° SW
Di, 22.10. 2:20 7 2 - 240° SW
Di, 22.10. 2:10 7 2 - 260° W
Di, 22.10. 2:00 6 1 7 260° W
Di, 22.10. 1:40 7 2 - 280° W
Di, 22.10. 1:30 4 1 7 190° S
Di, 22.10. 1:00 7 2 11 160° S
Di, 22.10. 0:30 6 1 7 150° SO
Di, 22.10. 0:00 6 1 7 160° S
Mo, 21.10. 23:30 6 1 6 230° SW
Ortszeit Untergrenze Bedeckung Gattung
total tief tief mittel hoch
Di, 22.10. 2:00 9000 m 6/8 0/8 - - -
Mo, 21.10. 20:00 4500 m 8/8 4/8 - - -
Mo, 21.10. 14:00 7800 m 5/8 0/8 - - -
Mo, 21.10. 8:00 9000 m 7/8 0/8 - - -
Mo, 21.10. 2:00 8100 m 8/8 0/8 - - -
So, 20.10. 20:00 7800 m 8/8 0/8 - - -
So, 20.10. 14:00 7200 m 1/8 0/8 - - -
So, 20.10. 8:00 3900 m 7/8 5/8 - - -
Ortszeit Bedeckungsgrad in Achtel und Wolkenuntergrenze
Di, 22.10. 2:30 8(9000m)
Di, 22.10. 2:20 8(9000m)
Di, 22.10. 2:10 8(9000m)
Di, 22.10. 2:00 6(9000m)
Di, 22.10. 1:40 4(9000m)
Di, 22.10. 1:30 keine Wolken
Di, 22.10. 1:00 keine Wolken
Di, 22.10. 0:30 keine Wolken
Di, 22.10. 0:00 6(10500m)
Mo, 21.10. 23:30 1(9000m) 7(9000m) 8(10500m)
Ortszeit Luftdruck NN (hPa) Tendenz (hPa in 3 Std.)
Di, 22.10. 2:00 1023 + 0,6
Mo, 21.10. 20:00 1021 + 1,0
Mo, 21.10. 14:00 1018 + 1,5
Mo, 21.10. 8:00 1015 + 1,8
Mo, 21.10. 2:00 1013 + 0,8
So, 20.10. 20:00 1013 + 0,1
So, 20.10. 14:00 1012 - 0,1
So, 20.10. 8:00 1012 + 0,2
Ortszeit Luftdruck NN (hPa) Tendenz (hPa in 3 Std.)
Di, 22.10. 2:30 1023 + 0,8
Di, 22.10. 2:20 1023 keine Meldung
Di, 22.10. 2:10 1023 keine Meldung
Di, 22.10. 2:00 1023 + 0,6
Di, 22.10. 1:40 1023 keine Meldung
Di, 22.10. 1:30 1023 + 0,7
Di, 22.10. 1:00 1022 + 0,5
Di, 22.10. 0:30 1022 + 0,7
Di, 22.10. 0:00 1022 + 0,8
Mo, 21.10. 23:30 1022 + 0,8
Ortszeit Schneehöhe (cm)
Di, 22.10. 2:00 0
Mo, 21.10. 20:00 0
Mo, 21.10. 14:00 0
Mo, 21.10. 8:00 0
Mo, 21.10. 2:00 0
So, 20.10. 20:00 0
So, 20.10. 14:00 0
So, 20.10. 8:00 0
Ortszeit Schneehöhe (cm)
Di, 22.10. 2:30 0
Di, 22.10. 2:20 0
Di, 22.10. 2:10 0
Di, 22.10. 2:00 0
Di, 22.10. 1:40 0
Di, 22.10. 1:30 0
Di, 22.10. 1:00 0
Di, 22.10. 0:30 0
Di, 22.10. 0:00 0
Mo, 21.10. 23:30 0
Link zu dieser Seite / Seite empfehlen

Das Wetter in ...